sensor_id;sensor_type;location;lat;lon;timestamp;pressure;altitude;pressure_sealevel;temperature;humidity
54806;BME280;62866;55.776;37.496;2023-02-18T00:00:55;99908.31;;;-7.60;77.08
54806;BME280;62866;55.776;37.496;2023-02-18T00:03:23;99900.69;;;-7.63;76.81
54806;BME280;62866;55.776;37.496;2023-02-18T00:05:49;99896.34;;;-7.62;77.04
54806;BME280;62866;55.776;37.496;2023-02-18T00:08:15;99898.16;;;-7.64;76.97
54806;BME280;62866;55.776;37.496;2023-02-18T00:10:41;99891.28;;;-7.66;77.05
54806;BME280;62866;55.776;37.496;2023-02-18T00:13:06;99874.94;;;-7.68;76.96
54806;BME280;62866;55.776;37.496;2023-02-18T00:15:34;99873.25;;;-7.69;76.80
54806;BME280;62866;55.776;37.496;2023-02-18T00:18:00;99875.94;;;-7.70;76.89
54806;BME280;62866;55.776;37.496;2023-02-18T00:20:25;99884.53;;;-7.70;76.83
54806;BME280;62866;55.776;37.496;2023-02-18T00:22:51;99879.44;;;-7.71;77.01
54806;BME280;62866;55.776;37.496;2023-02-18T00:25:16;99870.16;;;-7.77;76.64
54806;BME280;62866;55.776;37.496;2023-02-18T00:27:42;99876.06;;;-7.73;76.66
54806;BME280;62866;55.776;37.496;2023-02-18T00:30:08;99876.91;;;-7.73;76.93
54806;BME280;62866;55.776;37.496;2023-02-18T00:32:34;99858.94;;;-7.77;77.04
54806;BME280;62866;55.776;37.496;2023-02-18T00:34:59;99872.41;;;-7.69;76.95
54806;BME280;62866;55.776;37.496;2023-02-18T00:37:25;99863.88;;;-7.71;76.86
54806;BME280;62866;55.776;37.496;2023-02-18T00:39:51;99855.59;;;-7.79;77.14
54806;BME280;62866;55.776;37.496;2023-02-18T00:42:16;99860.50;;;-7.73;77.09
54806;BME280;62866;55.776;37.496;2023-02-18T00:44:42;99868.91;;;-7.68;76.85
54806;BME280;62866;55.776;37.496;2023-02-18T00:47:08;99860.25;;;-7.69;77.02
54806;BME280;62866;55.776;37.496;2023-02-18T00:49:33;99853.31;;;-7.68;77.26
54806;BME280;62866;55.776;37.496;2023-02-18T00:51:59;99855.00;;;-7.67;77.25
54806;BME280;62866;55.776;37.496;2023-02-18T00:54:25;99855.78;;;-7.65;76.98
54806;BME280;62866;55.776;37.496;2023-02-18T00:56:50;99857.41;;;-7.62;76.74
54806;BME280;62866;55.776;37.496;2023-02-18T00:59:16;99839.50;;;-7.69;77.15
54806;BME280;62866;55.776;37.496;2023-02-18T01:01:44;99832.00;;;-7.75;76.90
54806;BME280;62866;55.776;37.496;2023-02-18T01:04:09;99837.28;;;-7.76;77.02
54806;BME280;62866;55.776;37.496;2023-02-18T01:06:35;99827.66;;;-7.74;76.99
54806;BME280;62866;55.776;37.496;2023-02-18T01:09:01;99808.66;;;-7.75;77.04
54806;BME280;62866;55.776;37.496;2023-02-18T01:11:26;99809.63;;;-7.77;77.30
54806;BME280;62866;55.776;37.496;2023-02-18T01:13:52;99802.69;;;-7.77;77.07
54806;BME280;62866;55.776;37.496;2023-02-18T01:16:18;99800.19;;;-7.78;77.07
54806;BME280;62866;55.776;37.496;2023-02-18T01:18:43;99793.31;;;-7.79;76.79
54806;BME280;62866;55.776;37.496;2023-02-18T01:21:09;99788.13;;;-7.79;76.90
54806;BME280;62866;55.776;37.496;2023-02-18T01:23:39;99790.56;;;-7.76;77.10
54806;BME280;62866;55.776;37.496;2023-02-18T01:26:05;99779.44;;;-7.78;77.03
54806;BME280;62866;55.776;37.496;2023-02-18T01:28:31;99778.34;;;-7.74;77.04
54806;BME280;62866;55.776;37.496;2023-02-18T01:30:57;99766.59;;;-7.81;76.88
54806;BME280;62866;55.776;37.496;2023-02-18T01:33:22;99756.34;;;-7.84;76.89
54806;BME280;62866;55.776;37.496;2023-02-18T01:35:48;99752.16;;;-7.87;77.32
54806;BME280;62866;55.776;37.496;2023-02-18T01:38:14;99755.44;;;-7.83;77.33
54806;BME280;62866;55.776;37.496;2023-02-18T01:40:47;99742.44;;;-8.00;77.17
54806;BME280;62866;55.776;37.496;2023-02-18T01:43:14;99749.84;;;-7.93;77.36
54806;BME280;62866;55.776;37.496;2023-02-18T01:46:06;99744.13;;;-7.99;76.95
54806;BME280;62866;55.776;37.496;2023-02-18T01:51:16;99727.75;;;-8.19;77.53
54806;BME280;62866;55.776;37.496;2023-02-18T01:53:49;99727.75;;;-8.19;77.79
54806;BME280;62866;55.776;37.496;2023-02-18T01:56:22;99731.25;;;-8.20;77.90
54806;BME280;62866;55.776;37.496;2023-02-18T01:58:49;99715.47;;;-8.32;77.76
54806;BME280;62866;55.776;37.496;2023-02-18T02:01:16;99722.47;;;-8.34;78.02
54806;BME280;62866;55.776;37.496;2023-02-18T02:03:42;99723.31;;;-8.34;78.30
54806;BME280;62866;55.776;37.496;2023-02-18T02:06:16;99718.97;;;-8.33;78.36
54806;BME280;62866;55.776;37.496;2023-02-18T02:08:43;99721.41;;;-8.30;78.32
54806;BME280;62866;55.776;37.496;2023-02-18T02:14:15;99716.75;;;-8.24;78.10
54806;BME280;62866;55.776;37.496;2023-02-18T02:45:57;99684.78;;;-7.71;77.89
54806;BME280;62866;55.776;37.496;2023-02-18T02:53:39;99664.84;;;-7.88;78.18
54806;BME280;62866;55.776;37.496;2023-02-18T02:56:06;99664.47;;;-7.97;78.38
54806;BME280;62866;55.776;37.496;2023-02-18T02:58:34;99662.91;;;-8.01;78.49
54806;BME280;62866;55.776;37.496;2023-02-18T03:04:03;99603.81;;;-8.47;79.17
54806;BME280;62866;55.776;37.496;2023-02-18T03:07:00;99665.28;;;-8.31;79.04
54806;BME280;62866;55.776;37.496;2023-02-18T03:09:49;99655.50;;;-8.44;79.36
54806;BME280;62866;55.776;37.496;2023-02-18T03:12:43;99653.13;;;-8.48;79.69
54806;BME280;62866;55.776;37.496;2023-02-18T03:23:56;99634.75;;;-8.26;80.03
54806;BME280;62866;55.776;37.496;2023-02-18T03:26:24;99624.38;;;-8.26;80.07
54806;BME280;62866;55.776;37.496;2023-02-18T03:28:52;99619.97;;;-8.24;80.33
54806;BME280;62866;55.776;37.496;2023-02-18T03:31:20;99603.63;;;-8.26;80.10
54806;BME280;62866;55.776;37.496;2023-02-18T03:33:58;99589.41;;;-8.35;79.96
54806;BME280;62866;55.776;37.496;2023-02-18T03:36:26;99602.22;;;-8.32;80.14
54806;BME280;62866;55.776;37.496;2023-02-18T03:38:58;99600.31;;;-8.46;80.18
54806;BME280;62866;55.776;37.496;2023-02-18T03:41:24;99594.28;;;-8.46;80.64
54806;BME280;62866;55.776;37.496;2023-02-18T03:43:52;99575.22;;;-8.62;81.02
54806;BME280;62866;55.776;37.496;2023-02-18T03:46:19;99584.34;;;-8.55;81.35
54806;BME280;62866;55.776;37.496;2023-02-18T03:48:45;99581.97;;;-8.60;82.02
54806;BME280;62866;55.776;37.496;2023-02-18T03:51:10;99573.59;;;-8.65;81.87
54806;BME280;62866;55.776;37.496;2023-02-18T03:53:36;99538.13;;;-8.82;82.02
54806;BME280;62866;55.776;37.496;2023-02-18T03:56:02;99569.19;;;-8.63;82.71
54806;BME280;62866;55.776;37.496;2023-02-18T03:58:27;99563.16;;;-8.63;82.92
54806;BME280;62866;55.776;37.496;2023-02-18T04:00:53;99570.63;;;-8.57;82.93
54806;BME280;62866;55.776;37.496;2023-02-18T04:03:18;99568.09;;;-8.59;82.71
54806;BME280;62866;55.776;37.496;2023-02-18T04:05:44;99565.50;;;-8.59;83.07
54806;BME280;62866;55.776;37.496;2023-02-18T04:08:09;99560.13;;;-8.54;83.29
54806;BME280;62866;55.776;37.496;2023-02-18T04:10:35;99553.84;;;-8.50;82.93
54806;BME280;62866;55.776;37.496;2023-02-18T04:13:01;99544.63;;;-8.56;82.96
54806;BME280;62866;55.776;37.496;2023-02-18T04:15:26;99552.25;;;-8.53;83.25
54806;BME280;62866;55.776;37.496;2023-02-18T04:17:52;99520.91;;;-8.65;83.15
54806;BME280;62866;55.776;37.496;2023-02-18T04:20:18;99533.59;;;-8.42;83.07
54806;BME280;62866;55.776;37.496;2023-02-18T04:22:44;99526.19;;;-8.50;83.02
54806;BME280;62866;55.776;37.496;2023-02-18T04:25:09;99529.16;;;-8.40;82.52
54806;BME280;62866;55.776;37.496;2023-02-18T04:27:35;99524.88;;;-8.41;82.36
54806;BME280;62866;55.776;37.496;2023-02-18T04:30:01;99524.50;;;-8.51;82.31
54806;BME280;62866;55.776;37.496;2023-02-18T04:32:27;99519.84;;;-8.44;82.68
54806;BME280;62866;55.776;37.496;2023-02-18T04:34:52;99513.28;;;-8.51;82.73
54806;BME280;62866;55.776;37.496;2023-02-18T04:37:18;99515.13;;;-8.53;82.96
54806;BME280;62866;55.776;37.496;2023-02-18T04:39:43;99512.06;;;-8.61;82.71
54806;BME280;62866;55.776;37.496;2023-02-18T04:42:09;99515.44;;;-8.59;82.81
54806;BME280;62866;55.776;37.496;2023-02-18T04:44:36;99515.44;;;-8.59;83.19
54806;BME280;62866;55.776;37.496;2023-02-18T04:47:03;99517.03;;;-8.57;83.13
54806;BME280;62866;55.776;37.496;2023-02-18T04:49:28;99514.00;;;-8.48;83.47
54806;BME280;62866;55.776;37.496;2023-02-18T04:51:54;99505.75;;;-8.38;83.29
54806;BME280;62866;55.776;37.496;2023-02-18T04:54:19;99509.88;;;-8.34;83.08
54806;BME280;62866;55.776;37.496;2023-02-18T04:56:45;99501.56;;;-8.41;82.52
54806;BME280;62866;55.776;37.496;2023-02-18T04:59:10;99494.75;;;-8.44;82.42
54806;BME280;62866;55.776;37.496;2023-02-18T05:01:36;99495.06;;;-8.32;82.48
54806;BME280;62866;55.776;37.496;2023-02-18T05:04:02;99487.28;;;-8.32;82.60
54806;BME280;62866;55.776;37.496;2023-02-18T05:06:27;99486.28;;;-8.30;82.50
54806;BME280;62866;55.776;37.496;2023-02-18T05:08:53;99488.13;;;-8.32;82.47
54806;BME280;62866;55.776;37.496;2023-02-18T05:11:19;99487.38;;;-8.18;81.91
54806;BME280;62866;55.776;37.496;2023-02-18T05:13:44;99460.16;;;-8.27;81.82
54806;BME280;62866;55.776;37.496;2023-02-18T05:16:10;99472.16;;;-8.24;81.93
54806;BME280;62866;55.776;37.496;2023-02-18T05:18:35;99464.38;;;-8.24;81.98
54806;BME280;62866;55.776;37.496;2023-02-18T05:21:01;99470.13;;;-8.35;82.00
54806;BME280;62866;55.776;37.496;2023-02-18T05:23:26;99472.22;;;-8.26;82.05
54806;BME280;62866;55.776;37.496;2023-02-18T05:25:53;99463.38;;;-8.22;82.28
54806;BME280;62866;55.776;37.496;2023-02-18T05:28:19;99462.28;;;-8.18;82.30
54806;BME280;62866;55.776;37.496;2023-02-18T05:30:44;99455.13;;;-8.13;81.71
54806;BME280;62866;55.776;37.496;2023-02-18T05:33:10;99438.88;;;-8.16;81.31
54806;BME280;62866;55.776;37.496;2023-02-18T05:35:35;99435.28;;;-8.14;81.38
54806;BME280;62866;55.776;37.496;2023-02-18T05:38:04;99436.88;;;-8.11;81.55
54806;BME280;62866;55.776;37.496;2023-02-18T05:40:30;99432.63;;;-8.12;82.01
54806;BME280;62866;55.776;37.496;2023-02-18T05:42:55;99426.34;;;-8.08;81.83
54806;BME280;62866;55.776;37.496;2023-02-18T05:45:21;99420.25;;;-7.91;80.82
54806;BME280;62866;55.776;37.496;2023-02-18T05:47:47;99414.06;;;-8.05;80.26
54806;BME280;62866;55.776;37.496;2023-02-18T05:50:12;99410.44;;;-8.02;80.18
54806;BME280;62866;55.776;37.496;2023-02-18T05:52:38;99414.06;;;-8.05;80.28
54806;BME280;62866;55.776;37.496;2023-02-18T05:55:04;99386.94;;;-8.15;80.33
54806;BME280;62866;55.776;37.496;2023-02-18T05:57:30;99408.69;;;-8.01;80.40
54806;BME280;62866;55.776;37.496;2023-02-18T05:59:56;99402.78;;;-7.88;80.09
54806;BME280;62866;55.776;37.496;2023-02-18T06:02:21;99388.91;;;-7.87;80.43
54806;BME280;62866;55.776;37.496;2023-02-18T06:04:47;99408.31;;;-7.78;80.20
54806;BME280;62866;55.776;37.496;2023-02-18T06:07:12;99378.19;;;-7.81;80.02
54806;BME280;62866;55.776;37.496;2023-02-18T06:09:38;99393.75;;;-7.65;79.87
54806;BME280;62866;55.776;37.496;2023-02-18T06:12:04;99389.72;;;-7.55;79.84
54806;BME280;62866;55.776;37.496;2023-02-18T06:14:29;99390.78;;;-7.43;79.79
54806;BME280;62866;55.776;37.496;2023-02-18T06:16:55;99380.06;;;-7.37;78.80
54806;BME280;62866;55.776;37.496;2023-02-18T06:19:20;99370.25;;;-7.32;78.24
54806;BME280;62866;55.776;37.496;2023-02-18T06:21:46;99374.88;;;-7.37;78.03
54806;BME280;62866;55.776;37.496;2023-02-18T06:24:12;99372.69;;;-7.29;78.40
54806;BME280;62866;55.776;37.496;2023-02-18T06:26:37;99364.47;;;-7.21;78.19
54806;BME280;62866;55.776;37.496;2023-02-18T06:29:03;99361.13;;;-7.09;78.19
54806;BME280;62866;55.776;37.496;2023-02-18T06:31:29;99357.53;;;-7.07;77.02
54806;BME280;62866;55.776;37.496;2023-02-18T06:33:54;99348.09;;;-6.94;76.46
54806;BME280;62866;55.776;37.496;2023-02-18T06:36:20;99342.63;;;-6.89;75.95
54806;BME280;62866;55.776;37.496;2023-02-18T06:38:46;99352.38;;;-6.93;74.95
54806;BME280;62866;55.776;37.496;2023-02-18T06:41:12;99360.47;;;-6.83;75.20
54806;BME280;62866;55.776;37.496;2023-02-18T06:43:38;99347.28;;;-6.80;75.10
54806;BME280;62866;55.776;37.496;2023-02-18T06:46:04;99337.44;;;-6.75;75.20
54806;BME280;62866;55.776;37.496;2023-02-18T06:48:30;99343.69;;;-6.63;74.78
54806;BME280;62866;55.776;37.496;2023-02-18T06:50:56;99328.00;;;-6.62;74.12
54806;BME280;62866;55.776;37.496;2023-02-18T06:53:22;99327.72;;;-6.57;73.81
54806;BME280;62866;55.776;37.496;2023-02-18T06:55:47;99320.03;;;-6.44;73.06
54806;BME280;62866;55.776;37.496;2023-02-18T06:58:14;99332.91;;;-6.43;73.21
54806;BME280;62866;55.776;37.496;2023-02-18T07:00:40;99311.06;;;-6.26;72.42
54806;BME280;62866;55.776;37.496;2023-02-18T07:03:06;99312.72;;;-5.97;71.73
54806;BME280;62866;55.776;37.496;2023-02-18T07:05:32;99313.53;;;-5.69;71.05
54806;BME280;62866;55.776;37.496;2023-02-18T07:07:57;99299.88;;;-5.73;70.82
54806;BME280;62866;55.776;37.496;2023-02-18T07:10:23;99301.44;;;-5.70;69.61
54806;BME280;62866;55.776;37.496;2023-02-18T07:12:49;99299.47;;;-5.67;69.36
54806;BME280;62866;55.776;37.496;2023-02-18T07:15:14;99299.97;;;-5.75;69.40
54806;BME280;62866;55.776;37.496;2023-02-18T07:17:40;99290.09;;;-5.30;69.22
54806;BME280;62866;55.776;37.496;2023-02-18T07:20:06;99285.69;;;-4.77;66.38
54806;BME280;62866;55.776;37.496;2023-02-18T07:22:32;99280.66;;;-4.93;66.60
54806;BME280;62866;55.776;37.496;2023-02-18T07:24:58;99280.75;;;-4.82;65.83
54806;BME280;62866;55.776;37.496;2023-02-18T07:27:24;99276.25;;;-4.92;65.70
54806;BME280;62866;55.776;37.496;2023-02-18T07:29:49;99278.75;;;-4.40;65.14
54806;BME280;62866;55.776;37.496;2023-02-18T07:32:17;99257.44;;;-3.98;63.98
54806;BME280;62866;55.776;37.496;2023-02-18T07:34:43;99248.03;;;-4.00;62.57
54806;BME280;62866;55.776;37.496;2023-02-18T07:37:08;99246.28;;;-3.52;62.38
54806;BME280;62866;55.776;37.496;2023-02-18T07:39:38;99245.28;;;-3.27;61.57
54806;BME280;62866;55.776;37.496;2023-02-18T07:42:04;99234.63;;;-3.48;60.41
54806;BME280;62866;55.776;37.496;2023-02-18T07:44:30;99230.63;;;-2.61;59.41
54806;BME280;62866;55.776;37.496;2023-02-18T07:46:56;99227.72;;;-2.14;58.29
54806;BME280;62866;55.776;37.496;2023-02-18T07:49:21;99227.47;;;-2.11;56.73
54806;BME280;62866;55.776;37.496;2023-02-18T07:51:47;99215.28;;;-2.77;57.79
54806;BME280;62866;55.776;37.496;2023-02-18T07:54:13;99226.88;;;-3.15;58.63
54806;BME280;62866;55.776;37.496;2023-02-18T07:56:39;99229.78;;;-3.41;60.96
54806;BME280;62866;55.776;37.496;2023-02-18T07:59:04;99222.41;;;-3.48;60.75
54806;BME280;62866;55.776;37.496;2023-02-18T08:01:30;99218.44;;;-3.64;61.50
54806;BME280;62866;55.776;37.496;2023-02-18T08:03:56;99204.31;;;-4.09;61.88
54806;BME280;62866;55.776;37.496;2023-02-18T08:06:32;99221.34;;;-4.40;63.20
54806;BME280;62866;55.776;37.496;2023-02-18T08:08:58;99188.72;;;-3.98;63.99
54806;BME280;62866;55.776;37.496;2023-02-18T08:11:24;99203.19;;;-3.35;62.09
54806;BME280;62866;55.776;37.496;2023-02-18T08:13:50;99189.16;;;-3.34;61.31
54806;BME280;62866;55.776;37.496;2023-02-18T08:16:18;99181.22;;;-3.68;61.97
54806;BME280;62866;55.776;37.496;2023-02-18T08:18:44;99201.66;;;-3.97;63.07
54806;BME280;62866;55.776;37.496;2023-02-18T08:21:12;99196.16;;;-3.81;63.29
54806;BME280;62866;55.776;37.496;2023-02-18T08:23:38;99191.59;;;-4.14;64.06
54806;BME280;62866;55.776;37.496;2023-02-18T08:26:04;99186.09;;;-4.22;64.90
54806;BME280;62866;55.776;37.496;2023-02-18T08:28:30;99185.06;;;-4.56;65.53
54806;BME280;62866;55.776;37.496;2023-02-18T08:30:55;99180.41;;;-4.64;66.25
54806;BME280;62866;55.776;37.496;2023-02-18T08:33:21;99163.50;;;-4.34;66.18
54806;BME280;62866;55.776;37.496;2023-02-18T08:35:49;99167.72;;;-4.21;65.74
54806;BME280;62866;55.776;37.496;2023-02-18T08:38:15;99167.38;;;-4.40;66.38
54806;BME280;62866;55.776;37.496;2023-02-18T08:40:40;99166.16;;;-3.99;65.63
54806;BME280;62866;55.776;37.496;2023-02-18T08:43:07;99153.09;;;-3.99;66.24
54806;BME280;62866;55.776;37.496;2023-02-18T08:45:32;99156.56;;;-4.23;66.76
54806;BME280;62866;55.776;37.496;2023-02-18T08:47:58;99134.69;;;-4.33;66.37
54806;BME280;62866;55.776;37.496;2023-02-18T08:50:23;99141.19;;;-3.22;64.75
54806;BME280;62866;55.776;37.496;2023-02-18T08:52:54;99141.81;;;-3.65;64.61
54806;BME280;62866;55.776;37.496;2023-02-18T08:55:20;99141.25;;;-3.92;65.66
54806;BME280;62866;55.776;37.496;2023-02-18T08:57:49;99143.03;;;-3.69;65.41
54806;BME280;62866;55.776;37.496;2023-02-18T09:00:15;99133.25;;;-3.67;65.50
54806;BME280;62866;55.776;37.496;2023-02-18T09:02:41;99127.25;;;-3.91;65.91
54806;BME280;62866;55.776;37.496;2023-02-18T09:05:07;99113.38;;;-3.92;66.51
54806;BME280;62866;55.776;37.496;2023-02-18T09:07:34;99107.63;;;-4.08;67.07
54806;BME280;62866;55.776;37.496;2023-02-18T09:10:00;99095.22;;;-4.52;67.91
54806;BME280;62866;55.776;37.496;2023-02-18T09:12:27;99118.78;;;-4.77;69.12
54806;BME280;62866;55.776;37.496;2023-02-18T09:14:53;99102.44;;;-4.92;69.94
54806;BME280;62866;55.776;37.496;2023-02-18T09:17:19;99102.97;;;-5.00;70.12
54806;BME280;62866;55.776;37.496;2023-02-18T09:19:44;99103.22;;;-5.15;70.89
54806;BME280;62866;55.776;37.496;2023-02-18T09:22:10;99089.59;;;-5.19;71.14
54806;BME280;62866;55.776;37.496;2023-02-18T09:24:37;99065.41;;;-5.21;71.46
54806;BME280;62866;55.776;37.496;2023-02-18T09:27:03;99078.78;;;-5.02;71.18
54806;BME280;62866;55.776;37.496;2023-02-18T09:29:29;99074.47;;;-4.77;71.43
54806;BME280;62866;55.776;37.496;2023-02-18T09:31:54;99047.59;;;-4.67;70.21
54806;BME280;62866;55.776;37.496;2023-02-18T09:34:20;99045.09;;;-4.68;69.71
54806;BME280;62866;55.776;37.496;2023-02-18T09:36:46;99044.31;;;-4.57;70.14
54806;BME280;62866;55.776;37.496;2023-02-18T09:39:12;99020.53;;;-4.53;69.26
54806;BME280;62866;55.776;37.496;2023-02-18T09:42:02;99046.00;;;-4.22;68.60
54806;BME280;62866;55.776;37.496;2023-02-18T09:44:50;99038.53;;;-4.15;69.19
54806;BME280;62866;55.776;37.496;2023-02-18T09:47:36;99036.44;;;-3.99;68.43
54806;BME280;62866;55.776;37.496;2023-02-18T09:50:21;99003.84;;;-3.49;67.43
54806;BME280;62866;55.776;37.496;2023-02-18T09:52:48;99014.88;;;-3.34;66.14
54806;BME280;62866;55.776;37.496;2023-02-18T09:55:28;99015.47;;;-3.30;65.66
54806;BME280;62866;55.776;37.496;2023-02-18T09:58:04;98997.31;;;-3.43;66.38
54806;BME280;62866;55.776;37.496;2023-02-18T10:00:38;99002.56;;;-3.54;66.32
54806;BME280;62866;55.776;37.496;2023-02-18T10:03:17;98987.94;;;-3.68;66.74
54806;BME280;62866;55.776;37.496;2023-02-18T10:06:05;98980.81;;;-3.88;66.81
54806;BME280;62866;55.776;37.496;2023-02-18T10:08:38;98966.81;;;-3.87;67.08
54806;BME280;62866;55.776;37.496;2023-02-18T10:11:14;98978.97;;;-4.10;67.47
54806;BME280;62866;55.776;37.496;2023-02-18T10:13:41;98966.47;;;-3.94;67.54
54806;BME280;62866;55.776;37.496;2023-02-18T10:16:08;98967.78;;;-3.77;67.50
54806;BME280;62866;55.776;37.496;2023-02-18T10:18:41;98975.81;;;-3.47;67.80
54806;BME280;62866;55.776;37.496;2023-02-18T10:21:16;98941.34;;;-3.29;66.76
54806;BME280;62866;55.776;37.496;2023-02-18T10:26:39;98941.91;;;-3.15;65.12
54806;BME280;62866;55.776;37.496;2023-02-18T10:29:13;98946.56;;;-3.18;65.51
54806;BME280;62866;55.776;37.496;2023-02-18T10:32:06;98936.25;;;-2.99;65.59
54806;BME280;62866;55.776;37.496;2023-02-18T10:34:45;98930.09;;;-3.09;65.90
54806;BME280;62866;55.776;37.496;2023-02-18T10:45:27;98924.81;;;-2.87;65.15
54806;BME280;62866;55.776;37.496;2023-02-18T10:48:14;98919.47;;;-2.85;64.43
54806;BME280;62866;55.776;37.496;2023-02-18T10:50:44;98922.22;;;-2.66;64.47
54806;BME280;62866;55.776;37.496;2023-02-18T10:55:54;98916.56;;;-2.30;63.04
54806;BME280;62866;55.776;37.496;2023-02-18T10:58:33;98894.97;;;-2.22;63.85
54806;BME280;62866;55.776;37.496;2023-02-18T11:01:05;98901.28;;;-2.24;62.95
54806;BME280;62866;55.776;37.496;2023-02-18T11:03:51;98893.94;;;-2.31;62.81
54806;BME280;62866;55.776;37.496;2023-02-18T11:06:32;98898.75;;;-2.56;62.95
54806;BME280;62866;55.776;37.496;2023-02-18T11:09:02;98894.03;;;-2.62;63.61
54806;BME280;62866;55.776;37.496;2023-02-18T11:11:33;98879.66;;;-2.89;63.85
54806;BME280;62866;55.776;37.496;2023-02-18T11:14:02;98870.44;;;-3.04;64.33
54806;BME280;62866;55.776;37.496;2023-02-18T11:19:01;98898.69;;;-2.98;64.65
54806;BME280;62866;55.776;37.496;2023-02-18T11:21:35;98881.47;;;-3.00;64.93
54806;BME280;62866;55.776;37.496;2023-02-18T11:24:07;98877.97;;;-3.11;65.73
54806;BME280;62866;55.776;37.496;2023-02-18T11:26:35;98880.19;;;-3.06;65.75
54806;BME280;62866;55.776;37.496;2023-02-18T11:29:23;98876.59;;;-2.94;65.49
54806;BME280;62866;55.776;37.496;2023-02-18T11:31:53;98862.59;;;-3.04;65.37
54806;BME280;62866;55.776;37.496;2023-02-18T11:34:22;98865.88;;;-3.23;65.37
54806;BME280;62866;55.776;37.496;2023-02-18T11:36:50;98855.34;;;-3.32;66.24
54806;BME280;62866;55.776;37.496;2023-02-18T11:39:25;98857.06;;;-3.54;66.16
54806;BME280;62866;55.776;37.496;2023-02-18T11:42:03;98853.28;;;-3.61;66.93
54806;BME280;62866;55.776;37.496;2023-02-18T11:44:37;98852.19;;;-3.58;66.48
54806;BME280;62866;55.776;37.496;2023-02-18T11:47:30;98838.59;;;-3.84;67.67
54806;BME280;62866;55.776;37.496;2023-02-18T11:52:44;98830.19;;;-3.99;68.07
54806;BME280;62866;55.776;37.496;2023-02-18T11:58:03;98831.97;;;-3.99;68.57
54806;BME280;62866;55.776;37.496;2023-02-18T12:00:41;98820.31;;;-3.84;68.92
54806;BME280;62866;55.776;37.496;2023-02-18T12:03:32;98818.69;;;-3.85;68.61
54806;BME280;62866;55.776;37.496;2023-02-18T12:06:04;98803.22;;;-3.77;67.99
54806;BME280;62866;55.776;37.496;2023-02-18T12:08:46;98772.44;;;-4.05;68.20
54806;BME280;62866;55.776;37.496;2023-02-18T12:11:21;98802.03;;;-3.84;68.17
54806;BME280;62866;55.776;37.496;2023-02-18T12:13:54;98797.03;;;-3.76;68.48
54806;BME280;62866;55.776;37.496;2023-02-18T12:33:07;98789.78;;;-4.38;70.34
54806;BME280;62866;55.776;37.496;2023-02-18T12:36:09;98776.38;;;-4.22;69.32
54806;BME280;62866;55.776;37.496;2023-02-18T12:44:00;98774.00;;;-4.36;69.93
54806;BME280;62866;55.776;37.496;2023-02-18T13:00:34;98754.81;;;-4.46;70.65
54806;BME280;62866;55.776;37.496;2023-02-18T13:08:58;98751.84;;;-4.64;71.52
54806;BME280;62866;55.776;37.496;2023-02-18T13:16:35;98754.31;;;-4.74;71.36
54806;BME280;62866;55.776;37.496;2023-02-18T13:21:53;98744.38;;;-4.80;72.28
54806;BME280;62866;55.776;37.496;2023-02-18T13:24:37;98739.75;;;-4.87;72.28
54806;BME280;62866;55.776;37.496;2023-02-18T13:30:37;98735.69;;;-4.91;72.24
54806;BME280;62866;55.776;37.496;2023-02-18T13:33:28;98749.81;;;-4.94;72.63
54806;BME280;62866;55.776;37.496;2023-02-18T13:38:53;98730.81;;;-5.07;72.50
54806;BME280;62866;55.776;37.496;2023-02-18T13:41:24;98717.69;;;-5.06;72.86
54806;BME280;62866;55.776;37.496;2023-02-18T13:43:50;98721.22;;;-5.18;73.41
54806;BME280;62866;55.776;37.496;2023-02-18T13:46:18;98719.19;;;-5.25;73.52
54806;BME280;62866;55.776;37.496;2023-02-18T13:48:54;98717.31;;;-5.23;73.90
54806;BME280;62866;55.776;37.496;2023-02-18T13:51:44;98690.66;;;-5.16;73.84
54806;BME280;62866;55.776;37.496;2023-02-18T13:56:39;98707.50;;;-5.20;73.33
54806;BME280;62866;55.776;37.496;2023-02-18T13:59:34;98695.25;;;-5.30;73.78
54806;BME280;62866;55.776;37.496;2023-02-18T14:02:30;98697.50;;;-5.37;74.05
54806;BME280;62866;55.776;37.496;2023-02-18T14:10:25;98662.19;;;-5.52;74.37
54806;BME280;62866;55.776;37.496;2023-02-18T14:22:48;98688.28;;;-5.30;74.50
54806;BME280;62866;55.776;37.496;2023-02-18T14:25:21;98664.34;;;-5.35;74.57
54806;BME280;62866;55.776;37.496;2023-02-18T14:27:52;98567.22;;;-5.93;74.61
54806;BME280;62866;55.776;37.496;2023-02-18T14:30:23;98664.00;;;-5.30;73.88
54806;BME280;62866;55.776;37.496;2023-02-18T14:32:51;98660.91;;;-5.36;74.34
54806;BME280;62866;55.776;37.496;2023-02-18T14:35:42;98665.16;;;-5.35;74.42
54806;BME280;62866;55.776;37.496;2023-02-18T14:38:25;98653.09;;;-5.47;75.19
54806;BME280;62866;55.776;37.496;2023-02-18T14:51:53;98643.50;;;-5.46;74.53
54806;BME280;62866;55.776;37.496;2023-02-18T14:54:23;98640.56;;;-5.30;73.65
54806;BME280;62866;55.776;37.496;2023-02-18T14:56:58;98643.63;;;-5.48;74.17
54806;BME280;62866;55.776;37.496;2023-02-18T14:59:28;98648.34;;;-5.42;74.17
54806;BME280;62866;55.776;37.496;2023-02-18T15:01:56;98640.31;;;-5.39;73.73
54806;BME280;62866;55.776;37.496;2023-02-18T15:04:24;98644.44;;;-5.47;73.74
54806;BME280;62866;55.776;37.496;2023-02-18T15:07:04;98649.41;;;-5.55;74.42
54806;BME280;62866;55.776;37.496;2023-02-18T15:09:33;98643.00;;;-5.62;74.63
54806;BME280;62866;55.776;37.496;2023-02-18T15:12:04;98632.97;;;-5.45;74.51
54806;BME280;62866;55.776;37.496;2023-02-18T15:14:35;98634.75;;;-5.45;73.92
54806;BME280;62866;55.776;37.496;2023-02-18T15:17:03;98623.13;;;-5.52;74.32
54806;BME280;62866;55.776;37.496;2023-02-18T15:19:38;98618.88;;;-5.53;74.56
54806;BME280;62866;55.776;37.496;2023-02-18T15:22:04;98617.78;;;-5.51;74.70
54806;BME280;62866;55.776;37.496;2023-02-18T15:24:35;98620.91;;;-5.46;74.76
54806;BME280;62866;55.776;37.496;2023-02-18T15:27:10;98610.47;;;-5.46;75.01
54806;BME280;62866;55.776;37.496;2023-02-18T15:29:37;98595.66;;;-5.56;75.43
54806;BME280;62866;55.776;37.496;2023-02-18T15:32:17;98607.38;;;-5.51;75.65
54806;BME280;62866;55.776;37.496;2023-02-18T15:34:43;98598.03;;;-5.64;75.99
54806;BME280;62866;55.776;37.496;2023-02-18T15:37:12;98605.50;;;-5.49;75.68
54806;BME280;62866;55.776;37.496;2023-02-18T15:39:38;98606.44;;;-5.50;75.29